createdAt,value
2022-10-03T00:00:21.628Z,99975.80
2022-10-03T00:04:23.542Z,99973.67
2022-10-03T00:08:05.278Z,99975.70
2022-10-03T00:11:41.245Z,99972.55
2022-10-03T00:15:14.967Z,99971.28
2022-10-03T00:19:09.617Z,99974.23
2022-10-03T00:22:44.314Z,99979.52
2022-10-03T00:26:30.967Z,99976.71
2022-10-03T00:30:13.375Z,99975.83
2022-10-03T00:33:52.863Z,99975.20
2022-10-03T00:37:36.717Z,99976.42
2022-10-03T00:41:15.158Z,99972.22
2022-10-03T00:44:58.956Z,99970.42
2022-10-03T00:49:09.001Z,99968.91
2022-10-03T00:53:04.863Z,99966.69
2022-10-03T00:57:09.020Z,99961.16
2022-10-03T01:00:37.874Z,99964.64
2022-10-03T01:04:27.265Z,99968.60
2022-10-03T01:08:21.527Z,99971.45
2022-10-03T01:12:14.487Z,99968.02
2022-10-03T01:15:54.199Z,99965.34
2022-10-03T01:19:43.245Z,99965.02
2022-10-03T01:23:41.898Z,99962.58
2022-10-03T01:27:13.285Z,99961.89
2022-10-03T01:30:44.688Z,99962.34
2022-10-03T01:34:34.614Z,99966.24
2022-10-03T01:38:21.636Z,99965.84
2022-10-03T01:46:31.297Z,99966.91
2022-10-03T01:50:22.770Z,99965.70
2022-10-03T01:54:06.041Z,99966.93
2022-10-03T01:57:42.834Z,99970.40
2022-10-03T02:01:16.514Z,99967.99
2022-10-03T02:04:52.962Z,99966.89
2022-10-03T02:08:37.932Z,99966.99
2022-10-03T02:12:14.370Z,99968.23
2022-10-03T02:15:57.101Z,99968.33
2022-10-03T02:19:29.575Z,99967.41
2022-10-03T02:22:59.286Z,99975.98
2022-10-03T02:26:59.425Z,99986.10
2022-10-03T02:30:35.275Z,99987.05
2022-10-03T02:34:34.121Z,99988.06
2022-10-03T02:38:17.827Z,99985.45
2022-10-03T02:42:25.434Z,99987.77
2022-10-03T02:46:12.430Z,99992.34
2022-10-03T02:50:15.752Z,99994.16
2022-10-03T02:54:18.608Z,99991.83
2022-10-03T02:58:18.635Z,99991.27
2022-10-03T03:02:15.649Z,99991.27
2022-10-03T03:06:13.256Z,99990.63
2022-10-03T03:10:09.236Z,99987.27
2022-10-03T03:14:02.516Z,99984.90
2022-10-03T03:17:38.983Z,99989.63
2022-10-03T03:21:31.476Z,99987.94
2022-10-03T03:25:23.772Z,99981.52
2022-10-03T03:28:58.571Z,99983.16
2022-10-03T03:32:37.722Z,99986.96
2022-10-03T03:36:16.940Z,99988.65
2022-10-03T03:40:01.055Z,99989.41
2022-10-03T03:43:50.731Z,99990.16
2022-10-03T03:47:38.681Z,99994.54
2022-10-03T03:51:23.188Z,99991.88
2022-10-03T03:55:07.275Z,99996.36
2022-10-03T03:58:42.088Z,99992.54
2022-10-03T04:02:20.917Z,99994.62
2022-10-03T04:06:00.867Z,100003.89
2022-10-03T04:10:02.956Z,100000.58
2022-10-03T04:13:43.786Z,99996.55
2022-10-03T04:17:55.161Z,100000.27
2022-10-03T04:21:41.736Z,99999.50
2022-10-03T04:25:45.134Z,99999.87
2022-10-03T04:29:32.152Z,99997.55
2022-10-03T04:33:11.937Z,100001.50
2022-10-03T04:37:03.092Z,100002.66
2022-10-03T04:40:44.891Z,100006.29
2022-10-03T04:44:26.280Z,100003.72
2022-10-03T04:47:58.309Z,100003.10
2022-10-03T04:51:43.232Z,100007.27
2022-10-03T04:55:23.487Z,100004.21
2022-10-03T04:58:57.964Z,100006.88
2022-10-03T05:02:38.453Z,100010.89
2022-10-03T05:06:19.682Z,100010.52
2022-10-03T05:09:54.612Z,100013.01
2022-10-03T05:13:35.188Z,100011.17
2022-10-03T05:17:11.228Z,100017.89
2022-10-03T05:20:50.399Z,100028.27
2022-10-03T05:24:28.160Z,100032.04
2022-10-03T05:28:03.675Z,100045.77
2022-10-03T05:31:48.062Z,100046.52
2022-10-03T05:35:33.333Z,100064.30
2022-10-03T05:39:19.457Z,100063.34
2022-10-03T05:43:07.557Z,100064.48
2022-10-03T05:46:51.092Z,100073.30
2022-10-03T05:50:44.493Z,100075.12
2022-10-03T05:54:41.113Z,100080.05
2022-10-03T05:58:54.548Z,100086.24
2022-10-03T06:02:59.694Z,100089.21
2022-10-03T06:06:44.426Z,100094.38
2022-10-03T06:10:52.135Z,100101.45
2022-10-03T06:14:35.090Z,100106.33
2022-10-03T06:18:12.596Z,100108.84
2022-10-03T06:22:11.577Z,100109.30
2022-10-03T06:26:21.131Z,100113.25
2022-10-03T06:30:12.015Z,100119.03
2022-10-03T06:34:08.512Z,100126.02
2022-10-03T06:38:10.264Z,100125.80
2022-10-03T06:42:17.544Z,100116.29
2022-10-03T06:46:19.642Z,100128.98
2022-10-03T06:50:30.961Z,100133.65
2022-10-03T06:54:23.664Z,100132.86
2022-10-03T06:58:15.520Z,100139.80
2022-10-03T07:02:15.177Z,100145.63
2022-10-03T07:06:05.085Z,100145.73
2022-10-03T07:10:14.478Z,100154.19
2022-10-03T07:14:11.110Z,100160.85
2022-10-03T07:18:11.742Z,100166.20
2022-10-03T07:22:21.475Z,100170.73
2022-10-03T07:26:26.573Z,100174.23
2022-10-03T07:30:15.801Z,100180.98
2022-10-03T07:34:11.529Z,100183.52
2022-10-03T07:38:14.358Z,100186.27
2022-10-03T07:42:02.159Z,100197.60
2022-10-03T07:46:02.171Z,100200.14
2022-10-03T07:49:54.985Z,100204.26
2022-10-03T07:53:43.668Z,100210.27
2022-10-03T07:57:55.179Z,100208.66
2022-10-03T08:01:47.850Z,100211.72
2022-10-03T08:05:30.499Z,100220.33
2022-10-03T08:09:24.038Z,100232.50
2022-10-03T08:13:14.200Z,100243.15
2022-10-03T08:17:03.565Z,100249.64
2022-10-03T08:20:45.610Z,100247.89
2022-10-03T08:24:25.845Z,100250.39
2022-10-03T08:28:19.913Z,100256.21
2022-10-03T08:31:54.809Z,100255.66
2022-10-03T08:35:32.268Z,100262.55
2022-10-03T08:39:27.580Z,100268.58
2022-10-03T08:43:28.958Z,100270.34
2022-10-03T08:47:16.991Z,100271.15
2022-10-03T08:51:13.256Z,100274.92
2022-10-03T08:55:13.060Z,100272.38
2022-10-03T08:59:18.401Z,100277.86
2022-10-03T09:03:35.290Z,100280.30
2022-10-03T09:07:29.296Z,100289.45
2022-10-03T09:11:36.956Z,100297.58
2022-10-03T09:15:26.376Z,100308.61
2022-10-03T09:19:17.006Z,100307.29
2022-10-03T09:23:12.557Z,100308.62
2022-10-03T09:27:09.359Z,100306.68
2022-10-03T09:30:50.577Z,100308.00
2022-10-03T09:34:51.387Z,100309.20
2022-10-03T09:38:46.227Z,100319.56
2022-10-03T09:42:57.858Z,100323.79
2022-10-03T09:47:11.563Z,100319.30
2022-10-03T09:51:03.541Z,100335.32
2022-10-03T09:55:04.651Z,100355.54
2022-10-03T09:58:56.472Z,100368.57
2022-10-03T10:02:54.874Z,100374.54
2022-10-03T10:07:00.525Z,100370.63
2022-10-03T10:11:21.204Z,100355.84
2022-10-03T10:15:12.522Z,100359.36
2022-10-03T10:19:02.755Z,100357.23
2022-10-03T10:23:05.822Z,100358.98
2022-10-03T10:27:11.683Z,100355.36
2022-10-03T10:31:20.064Z,100360.64
2022-10-03T10:35:28.694Z,100363.60
2022-10-03T10:39:41.827Z,100360.88
2022-10-03T10:43:52.809Z,100370.36
2022-10-03T10:47:59.604Z,100372.79
2022-10-03T10:52:12.213Z,100374.41
2022-10-03T10:56:09.232Z,100368.24
2022-10-03T11:00:08.124Z,100374.34
2022-10-03T11:04:21.994Z,100372.28
2022-10-03T11:08:31.834Z,100374.75
2022-10-03T11:12:44.459Z,100375.78
2022-10-03T11:17:04.746Z,100373.02
2022-10-03T11:21:05.609Z,100379.23
2022-10-03T11:25:13.211Z,100379.34
2022-10-03T11:29:31.673Z,100376.55
2022-10-03T11:33:43.430Z,100381.20
2022-10-03T11:37:26.675Z,100384.29
2022-10-03T11:41:06.014Z,100380.67
2022-10-03T11:44:35.923Z,100381.00
2022-10-03T11:48:21.918Z,100380.20
2022-10-03T11:52:03.791Z,100381.10
2022-10-03T11:55:39.578Z,100385.34
2022-10-03T11:59:27.052Z,100392.43
2022-10-03T12:03:13.956Z,100397.12
2022-10-03T12:07:17.649Z,100404.23
2022-10-03T12:10:58.095Z,100402.21
2022-10-03T12:14:33.202Z,100409.96
2022-10-03T12:18:07.127Z,100419.90
2022-10-03T12:21:44.221Z,100424.40
2022-10-03T12:25:24.141Z,100434.34
2022-10-03T12:28:57.812Z,100443.54
2022-10-03T12:32:34.069Z,100443.02
2022-10-03T12:36:10.763Z,100450.20
2022-10-03T12:39:48.003Z,100446.34
2022-10-03T12:43:38.232Z,100451.69
2022-10-03T12:47:37.664Z,100456.98
2022-10-03T12:51:22.148Z,100458.87
2022-10-03T12:54:57.575Z,100456.55
2022-10-03T12:58:32.226Z,100462.16
2022-10-03T13:02:25.726Z,100465.12
2022-10-03T13:06:17.954Z,100470.61
2022-10-03T13:10:01.974Z,100471.63
2022-10-03T13:13:52.278Z,100471.71
2022-10-03T13:17:30.797Z,100474.16
2022-10-03T13:21:26.669Z,100476.21
2022-10-03T13:25:06.324Z,100474.90
2022-10-03T13:28:39.941Z,100470.14
2022-10-03T13:32:16.565Z,100474.89
2022-10-03T13:36:02.983Z,100476.77
2022-10-03T13:39:39.887Z,100480.55
2022-10-03T13:43:15.811Z,100484.06
2022-10-03T13:46:53.903Z,100485.70
2022-10-03T13:50:27.197Z,100483.33
2022-10-03T13:54:02.326Z,100483.84
2022-10-03T13:57:34.887Z,100487.90
2022-10-03T14:01:14.980Z,100483.70
2022-10-03T14:04:56.581Z,100487.81
2022-10-03T14:08:45.079Z,100486.63
2022-10-03T14:12:38.205Z,100497.06
2022-10-03T14:16:22.311Z,100503.11
2022-10-03T14:20:06.788Z,100501.34
2022-10-03T14:23:39.401Z,100503.48
2022-10-03T14:27:18.634Z,100501.70
2022-10-03T14:31:06.310Z,100496.96
2022-10-03T14:34:56.290Z,100494.67
2022-10-03T14:39:05.829Z,100498.98
2022-10-03T14:42:59.240Z,100506.34
2022-10-03T14:46:34.341Z,100507.89
2022-10-03T14:50:04.808Z,100507.15
2022-10-03T14:53:35.207Z,100511.61
2022-10-03T14:57:34.864Z,100511.48
2022-10-03T15:01:19.612Z,100512.80
2022-10-03T15:04:48.394Z,100504.33
2022-10-03T15:08:20.951Z,100501.36
2022-10-03T15:11:55.864Z,100497.48
2022-10-03T15:15:30.335Z,100500.08
2022-10-03T15:19:06.988Z,100503.70
2022-10-03T15:22:39.879Z,100505.27
2022-10-03T15:26:18.716Z,100511.59
2022-10-03T15:29:48.431Z,100514.44
2022-10-03T15:33:23.005Z,100512.77
2022-10-03T15:36:56.432Z,100510.73
2022-10-03T15:40:39.537Z,100514.61
2022-10-03T15:44:16.715Z,100517.46
2022-10-03T15:47:48.466Z,100517.12
2022-10-03T15:51:23.309Z,100513.59
2022-10-03T15:55:10.985Z,100513.15
2022-10-03T15:58:40.979Z,100512.15
2022-10-03T16:02:19.341Z,100518.90
2022-10-03T16:06:03.751Z,100519.31
2022-10-03T16:09:42.056Z,100524.13
2022-10-03T16:13:26.949Z,100528.16
2022-10-03T16:16:58.293Z,100530.29
2022-10-03T16:20:31.074Z,100533.68
2022-10-03T16:24:02.980Z,100534.77
2022-10-03T16:27:35.880Z,100537.92
2022-10-03T16:31:05.222Z,100541.13
2022-10-03T16:34:35.469Z,100544.81
2022-10-03T16:38:04.779Z,100547.26
2022-10-03T16:41:37.108Z,100544.98
2022-10-03T16:45:05.472Z,100544.79
2022-10-03T16:48:55.683Z,100546.95
2022-10-03T16:52:30.961Z,100547.34
2022-10-03T16:56:08.362Z,100546.82
2022-10-03T16:59:38.636Z,100547.90
2022-10-03T17:03:17.601Z,100546.10
2022-10-03T17:06:50.206Z,100547.30
2022-10-03T17:10:35.817Z,100541.39
2022-10-03T17:14:07.093Z,100543.62
2022-10-03T17:17:45.317Z,100538.91
2022-10-03T17:21:24.304Z,100539.50
2022-10-03T17:24:54.760Z,100535.58
2022-10-03T17:28:33.122Z,100536.67
2022-10-03T17:32:07.232Z,100542.77
2022-10-03T17:35:44.904Z,100537.55
2022-10-03T17:39:20.060Z,100538.64
2022-10-03T17:42:52.969Z,100534.02
2022-10-03T17:46:34.866Z,100532.43
2022-10-03T17:50:18.383Z,100528.77
2022-10-03T17:54:00.046Z,100526.33
2022-10-03T17:57:45.268Z,100525.69
2022-10-03T18:01:29.659Z,100527.73
2022-10-03T18:05:20.274Z,100529.06
2022-10-03T18:09:00.361Z,100530.61
2022-10-03T18:12:37.780Z,100531.60
2022-10-03T18:16:28.160Z,100529.23
2022-10-03T18:20:22.217Z,100528.11
2022-10-03T18:24:13.577Z,100535.95
2022-10-03T18:28:19.347Z,100534.23
2022-10-03T18:31:52.171Z,100533.35
2022-10-03T18:35:25.345Z,100530.34
2022-10-03T18:38:57.272Z,100530.04
2022-10-03T18:42:30.214Z,100526.34
2022-10-03T18:46:08.114Z,100527.68
2022-10-03T18:49:42.785Z,100531.18
2022-10-03T18:53:24.303Z,100531.84
2022-10-03T18:57:08.738Z,100531.93
2022-10-03T19:00:49.796Z,100528.39
2022-10-03T19:04:22.783Z,100523.27
2022-10-03T19:07:56.324Z,100529.34
2022-10-03T19:11:34.072Z,100529.45
2022-10-03T19:15:19.413Z,100522.32
2022-10-03T19:18:58.070Z,100521.97
2022-10-03T19:22:40.947Z,100528.48
2022-10-03T19:26:14.345Z,100528.06
2022-10-03T19:29:48.324Z,100521.98
2022-10-03T19:33:17.860Z,100512.73
2022-10-03T19:36:46.877Z,100516.36
2022-10-03T19:40:28.058Z,100516.40
2022-10-03T19:43:57.523Z,100514.97
2022-10-03T19:47:31.388Z,100515.40
2022-10-03T19:50:59.531Z,100518.89
2022-10-03T19:54:36.500Z,100520.70
2022-10-03T19:58:14.096Z,100519.92
2022-10-03T20:01:48.601Z,100520.30
2022-10-03T20:05:22.396Z,100521.89
2022-10-03T20:08:55.187Z,100519.48
2022-10-03T20:12:27.397Z,100519.01
2022-10-03T20:16:00.276Z,100523.22
2022-10-03T20:19:35.820Z,100526.83
2022-10-03T20:23:09.385Z,100524.37
2022-10-03T20:26:44.597Z,100517.84
2022-10-03T20:30:27.442Z,100516.77
2022-10-03T20:33:56.425Z,100513.58
2022-10-03T20:37:36.974Z,100508.27
2022-10-03T20:41:11.218Z,100509.60
2022-10-03T20:44:49.700Z,100512.84
2022-10-03T20:48:24.994Z,100512.27
2022-10-03T20:52:03.596Z,100513.56
2022-10-03T20:55:34.991Z,100515.16
2022-10-03T20:59:08.484Z,100515.04
2022-10-03T21:02:41.476Z,100513.40
2022-10-03T21:06:20.535Z,100515.61
2022-10-03T21:09:51.590Z,100512.52
2022-10-03T21:13:21.941Z,100507.75
2022-10-03T21:16:52.235Z,100508.48
2022-10-03T21:20:25.047Z,100512.74
2022-10-03T21:24:04.266Z,100512.02
2022-10-03T21:27:35.264Z,100517.59
2022-10-03T21:31:34.796Z,100510.67
2022-10-03T21:35:10.646Z,100506.80
2022-10-03T21:38:53.306Z,100508.12
2022-10-03T21:42:30.078Z,100501.14
2022-10-03T21:46:05.144Z,100495.07
2022-10-03T21:49:55.244Z,100494.48
2022-10-03T21:53:27.468Z,100489.55
2022-10-03T21:57:06.392Z,100492.71
2022-10-03T22:00:56.125Z,100490.89
2022-10-03T22:04:28.985Z,100485.91
2022-10-03T22:07:55.730Z,100483.21
2022-10-03T22:11:36.301Z,100486.92
2022-10-03T22:15:11.792Z,100488.70
2022-10-03T22:19:00.664Z,100488.55
2022-10-03T22:22:40.573Z,100489.23
2022-10-03T22:26:19.184Z,100484.90
2022-10-03T22:29:57.244Z,100491.71
2022-10-03T22:33:33.225Z,100494.09
2022-10-03T22:37:01.039Z,100488.27
2022-10-03T22:40:30.761Z,100485.98
2022-10-03T22:44:00.679Z,100485.23
2022-10-03T22:47:32.603Z,100480.39
2022-10-03T22:51:01.496Z,100475.80
2022-10-03T22:54:36.804Z,100477.33
2022-10-03T22:58:06.705Z,100471.95
2022-10-03T23:01:34.751Z,100470.73
2022-10-03T23:05:05.517Z,100471.56
2022-10-03T23:08:45.987Z,100468.09
2022-10-03T23:12:15.217Z,100471.67
2022-10-03T23:15:45.382Z,100468.27
2022-10-03T23:19:28.627Z,100473.11
2022-10-03T23:23:00.859Z,100473.36
2022-10-03T23:27:01.371Z,100474.64
2022-10-03T23:30:57.337Z,100485.42
2022-10-03T23:35:12.049Z,100502.84
2022-10-03T23:39:03.878Z,100520.82
2022-10-03T23:42:46.493Z,100503.79
2022-10-03T23:46:16.896Z,100498.56
2022-10-03T23:49:47.743Z,100498.81
2022-10-03T23:53:30.508Z,100503.84
2022-10-03T23:57:05.133Z,100500.45
